Time;durP1;ratioP1;P1;durP2;ratioP2;P2;SDS_P1;SDS_P2;PMS_P1;PMS_P2;Temp;Humidity;BMP_temperature;BMP_pressure;BME280_temperature;BME280_humidity;BME280_pressure;Samples;Min_cycle;Max_cycle;Signal;HPM_P1;HPM_P2
2021/12/09 00:00:09;;;;;;;2.75;1.02;;;19.00;60.30;;;;;;6175788;22;92428;-59
2021/12/09 00:02:35;;;;;;;2.63;1.00;;;19.00;60.90;;;;;;6176869;22;92869;-59
2021/12/09 00:05:00;;;;;;;1.90;0.90;;;19.10;60.50;;;;;;6176717;22;92487;-59
2021/12/09 00:07:26;;;;;;;1.58;0.80;;;19.00;60.50;;;;;;6175501;22;93441;-59
2021/12/09 00:09:52;;;;;;;1.75;1.00;;;19.00;60.50;;;;;;6176071;22;94227;-59
2021/12/09 00:12:21;;;;;;;3.85;0.75;;;19.00;60.50;;;;;;6177074;22;92805;-59
2021/12/09 00:14:47;;;;;;;3.22;1.00;;;19.00;60.60;;;;;;6176659;22;92773;-59
2021/12/09 00:17:12;;;;;;;2.17;0.90;;;19.00;60.60;;;;;;6174989;22;95525;-59
2021/12/09 00:19:38;;;;;;;3.63;0.80;;;19.00;60.60;;;;;;6176345;22;92386;-59
2021/12/09 00:22:11;;;;;;;5.38;1.38;;;19.00;60.60;;;;;;6176441;22;92790;-59
2021/12/09 00:24:37;;;;;;;4.53;0.90;;;18.90;60.60;;;;;;6177629;22;91286;-59
2021/12/09 00:27:03;;;;;;;5.57;1.17;;;18.90;60.70;;;;;;6175447;22;95902;-59
2021/12/09 00:29:29;;;;;;;2.80;1.42;;;18.90;60.60;;;;;;6175414;22;94755;-59
2021/12/09 00:31:54;;;;;;;3.58;1.75;;;18.90;60.60;;;;;;6175290;22;93479;-59
2021/12/09 00:34:30;;;;;;;2.72;0.90;;;18.90;60.70;;;;;;6175119;22;93870;-59
2021/12/09 00:37:01;;;;;;;2.17;0.73;;;18.90;60.60;;;;;;6176340;22;93069;-59
2021/12/09 00:39:27;;;;;;;2.65;0.90;;;18.90;60.70;;;;;;6175460;22;93905;-59
2021/12/09 00:41:53;;;;;;;1.35;0.63;;;18.90;60.70;;;;;;6176866;22;92477;-59
2021/12/09 00:44:19;;;;;;;1.85;0.90;;;18.90;60.70;;;;;;6176647;22;93010;-59
2021/12/09 00:46:44;;;;;;;2.30;0.90;;;18.90;60.70;;;;;;6174657;22;94047;-59
2021/12/09 00:49:10;;;;;;;2.38;0.90;;;18.80;60.60;;;;;;6175333;22;92710;-59
2021/12/09 00:51:36;;;;;;;2.60;0.95;;;18.80;60.60;;;;;;6176445;22;92459;-59
2021/12/09 00:54:02;;;;;;;1.95;0.80;;;18.80;60.60;;;;;;6175871;22;92675;-59
2021/12/09 00:56:28;;;;;;;2.92;1.10;;;18.80;60.60;;;;;;6174470;22;97205;-59
2021/12/09 00:58:55;;;;;;;2.08;0.73;;;18.80;60.70;;;;;;6174247;22;92554;-59
2021/12/09 01:01:22;;;;;;;2.58;0.70;;;18.80;60.70;;;;;;6174557;22;92934;-59
2021/12/09 01:03:49;;;;;;;2.75;0.75;;;18.80;60.70;;;;;;6176409;22;92653;-59
2021/12/09 01:06:15;;;;;;;3.08;1.08;;;18.80;60.70;;;;;;6175093;22;93986;-59
2021/12/09 01:08:45;;;;;;;2.30;1.25;;;18.70;60.70;;;;;;6174953;22;94112;-59
2021/12/09 01:11:12;;;;;;;2.03;1.00;;;18.80;60.70;;;;;;6176789;22;92672;-59
2021/12/09 01:13:38;;;;;;;2.47;1.02;;;18.70;60.70;;;;;;6175493;22;92010;-59
2021/12/09 01:16:05;;;;;;;3.47;0.80;;;18.70;60.70;;;;;;6174484;22;94212;-59
2021/12/09 01:18:31;;;;;;;2.78;0.90;;;18.70;60.70;;;;;;6174657;22;93396;-59
2021/12/09 01:20:57;;;;;;;5.43;0.98;;;18.70;60.60;;;;;;6176054;22;93465;-59
2021/12/09 01:23:22;;;;;;;2.40;1.10;;;18.70;60.60;;;;;;6175647;22;92772;-59
2021/12/09 01:25:50;;;;;;;2.30;0.77;;;18.70;60.60;;;;;;6175129;22;92650;-58
2021/12/09 01:28:23;;;;;;;1.30;0.70;;;18.70;60.60;;;;;;6174837;22;94355;-59
2021/12/09 01:30:50;;;;;;;3.38;1.00;;;18.60;60.50;;;;;;6176659;22;92631;-59
2021/12/09 01:33:17;;;;;;;2.22;0.80;;;18.70;60.60;;;;;;6176206;22;92202;-59
2021/12/09 01:35:47;;;;;;;2.92;0.80;;;18.70;60.60;;;;;;6175224;22;93151;-59
2021/12/09 01:38:15;;;;;;;2.15;0.80;;;18.70;60.60;;;;;;6175910;22;92983;-59
2021/12/09 01:40:41;;;;;;;2.15;0.90;;;18.60;60.60;;;;;;6175997;22;92481;-59
2021/12/09 01:43:07;;;;;;;3.17;1.00;;;18.60;60.60;;;;;;6175087;22;91980;-59
2021/12/09 01:45:33;;;;;;;3.40;1.20;;;18.60;60.60;;;;;;6175868;22;94278;-59
2021/12/09 01:47:59;;;;;;;3.20;0.85;;;18.60;60.60;;;;;;6175282;22;94691;-59
2021/12/09 01:50:26;;;;;;;2.95;0.90;;;18.60;60.60;;;;;;6175290;22;92071;-59
2021/12/09 01:52:52;;;;;;;2.42;0.88;;;18.60;60.50;;;;;;6176759;22;92251;-58
2021/12/09 01:55:20;;;;;;;2.78;0.80;;;18.60;60.60;;;;;;6176181;22;93028;-59
2021/12/09 01:57:48;;;;;;;2.35;0.70;;;18.60;60.60;;;;;;6175152;22;92574;-59
2021/12/09 02:00:17;;;;;;;2.20;0.65;;;18.50;60.50;;;;;;6174989;22;93072;-58
2021/12/09 02:02:43;;;;;;;1.90;0.80;;;18.50;60.50;;;;;;6174615;22;91941;-59
2021/12/09 02:05:11;;;;;;;3.25;1.42;;;18.50;60.50;;;;;;6175307;22;93211;-60
2021/12/09 02:07:38;;;;;;;2.47;0.75;;;18.50;60.50;;;;;;6175444;22;93036;-59
2021/12/09 02:10:08;;;;;;;5.82;1.00;;;18.50;60.50;;;;;;6175154;22;92953;-59
2021/12/09 02:12:34;;;;;;;3.13;1.02;;;18.50;60.50;;;;;;6174628;22;92286;-59
2021/12/09 02:15:00;;;;;;;1.77;0.80;;;18.50;60.60;;;;;;6175268;22;94026;-59
2021/12/09 02:17:28;;;;;;;1.52;0.73;;;18.50;60.50;;;;;;6176252;22;92865;-59
2021/12/09 02:19:58;;;;;;;2.33;0.80;;;18.50;60.50;;;;;;6175018;22;92611;-59
2021/12/09 02:22:25;;;;;;;2.35;0.77;;;18.50;60.50;;;;;;6176129;22;92893;-59
2021/12/09 02:24:55;;;;;;;1.40;0.85;;;18.40;60.50;;;;;;6173984;22;94997;-59
2021/12/09 02:27:22;;;;;;;3.65;1.10;;;18.50;60.50;;;;;;6175325;22;94397;-60
2021/12/09 02:29:49;;;;;;;3.22;0.63;;;18.40;60.50;;;;;;6177936;22;92492;-59
2021/12/09 02:32:15;;;;;;;3.63;1.15;;;18.40;60.40;;;;;;6177324;22;92575;-59
2021/12/09 02:34:40;;;;;;;2.85;0.90;;;18.40;60.40;;;;;;6175080;22;94230;-59
2021/12/09 02:37:09;;;;;;;2.15;0.80;;;18.40;60.40;;;;;;6177611;22;92962;-59
2021/12/09 02:39:35;;;;;;;2.00;0.88;;;18.40;60.40;;;;;;6177270;22;92929;-59
2021/12/09 02:42:01;;;;;;;1.08;0.60;;;18.40;60.40;;;;;;6176406;22;92027;-59
2021/12/09 02:44:28;;;;;;;3.15;0.73;;;18.40;60.40;;;;;;6176892;22;93038;-59
2021/12/09 02:46:55;;;;;;;1.67;0.70;;;18.40;60.40;;;;;;6175747;22;94027;-59
2021/12/09 02:49:26;;;;;;;1.33;0.90;;;18.40;60.40;;;;;;6176964;22;92071;-59
2021/12/09 02:51:53;;;;;;;1.30;0.70;;;18.40;60.40;;;;;;6177365;22;92330;-59
2021/12/09 02:54:20;;;;;;;2.08;0.90;;;18.40;60.40;;;;;;6176304;22;93323;-59
2021/12/09 02:56:48;;;;;;;1.33;0.85;;;18.30;60.30;;;;;;6175872;22;94214;-59
2021/12/09 02:59:14;;;;;;;2.65;0.75;;;18.30;60.30;;;;;;6176789;22;93478;-59
2021/12/09 03:01:53;;;;;;;2.47;0.80;;;18.30;60.30;;;;;;6176564;22;92561;-59
2021/12/09 03:04:19;;;;;;;1.98;0.90;;;18.30;60.30;;;;;;6177195;22;94478;-59
2021/12/09 03:06:46;;;;;;;3.15;0.77;;;18.30;60.30;;;;;;6177853;22;92102;-59
2021/12/09 03:09:15;;;;;;;2.08;0.60;;;18.30;60.30;;;;;;6177793;22;92909;-59
2021/12/09 03:11:42;;;;;;;2.42;0.88;;;18.30;60.30;;;;;;6176258;22;93000;-59
2021/12/09 03:14:09;;;;;;;1.30;0.70;;;18.30;60.30;;;;;;6174966;22;92902;-59
2021/12/09 03:16:35;;;;;;;3.17;0.85;;;18.30;60.30;;;;;;6175734;22;93758;-59
2021/12/09 03:19:05;;;;;;;2.03;0.60;;;18.20;60.20;;;;;;6175438;22;93045;-59
2021/12/09 03:21:34;;;;;;;1.02;0.50;;;18.20;60.10;;;;;;6175237;22;92411;-59
2021/12/09 03:24:02;;;;;;;1.48;0.68;;;18.20;60.20;;;;;;6175408;22;94085;-59
2021/12/09 03:26:31;;;;;;;1.90;0.82;;;18.20;60.10;;;;;;6174781;22;99186;-59
2021/12/09 03:28:59;;;;;;;2.20;0.60;;;18.30;60.20;;;;;;6175975;22;92881;-59
2021/12/09 03:31:25;;;;;;;3.08;1.00;;;18.20;60.10;;;;;;6176588;22;93012;-59
2021/12/09 03:33:50;;;;;;;1.63;0.80;;;18.20;60.10;;;;;;6176982;22;93657;-59
2021/12/09 03:36:16;;;;;;;1.42;0.70;;;18.20;60.10;;;;;;6176433;22;92738;-59
2021/12/09 03:38:42;;;;;;;3.85;0.70;;;18.20;60.10;;;;;;6177077;22;92479;-59
2021/12/09 03:41:08;;;;;;;2.83;0.80;;;18.20;60.10;;;;;;6177197;22;91555;-59
2021/12/09 03:43:34;;;;;;;2.28;0.70;;;18.20;60.10;;;;;;6176900;22;93322;-59
2021/12/09 03:46:00;;;;;;;2.20;0.98;;;18.20;60.10;;;;;;6175973;22;92655;-59
2021/12/09 03:48:30;;;;;;;1.85;0.60;;;18.20;60.10;;;;;;6175362;22;93408;-59
2021/12/09 03:50:56;;;;;;;3.70;0.90;;;18.20;60.00;;;;;;6175109;22;92649;-59
2021/12/09 03:53:23;;;;;;;1.52;0.90;;;18.20;60.00;;;;;;6174800;22;94310;-59
2021/12/09 03:55:49;;;;;;;1.52;0.85;;;18.10;60.00;;;;;;6175071;22;93921;-59
2021/12/09 03:58:16;;;;;;;1.33;0.50;;;18.10;60.00;;;;;;6176513;22;92198;-59
2021/12/09 04:00:42;;;;;;;1.85;0.80;;;18.10;60.00;;;;;;6175254;22;92772;-59
2021/12/09 04:03:08;;;;;;;1.77;0.60;;;18.10;60.00;;;;;;6176598;22;93013;-59
2021/12/09 04:05:34;;;;;;;5.45;0.88;;;18.10;60.00;;;;;;6175441;22;92561;-58
2021/12/09 04:07:59;;;;;;;1.90;0.68;;;18.10;60.00;;;;;;6176075;22;93090;-59
2021/12/09 04:10:25;;;;;;;2.33;0.60;;;18.10;60.00;;;;;;6175068;22;92689;-59
2021/12/09 04:12:51;;;;;;;1.88;0.80;;;18.10;59.90;;;;;;6174731;22;95017;-59
2021/12/09 04:15:17;;;;;;;1.17;0.40;;;18.10;60.00;;;;;;6176534;22;93639;-59
2021/12/09 04:17:43;;;;;;;2.58;1.25;;;18.10;60.00;;;;;;6176910;22;92971;-59
2021/12/09 04:20:10;;;;;;;1.23;0.70;;;18.10;60.00;;;;;;6175116;22;92805;-59
2021/12/09 04:22:36;;;;;;;1.58;0.65;;;18.10;59.90;;;;;;6176606;22;94096;-59
2021/12/09 04:25:05;;;;;;;1.67;0.70;;;18.10;59.90;;;;;;6176329;22;93085;-59
2021/12/09 04:27:30;;;;;;;2.13;0.68;;;18.00;59.90;;;;;;6175359;22;92846;-59
2021/12/09 04:29:56;;;;;;;2.30;0.60;;;18.00;59.80;;;;;;6175899;22;92303;-59
2021/12/09 04:32:22;;;;;;;2.80;0.60;;;18.00;59.90;;;;;;6174740;22;94011;-59
2021/12/09 04:34:48;;;;;;;1.98;0.70;;;18.00;59.90;;;;;;6174723;22;92829;-59
2021/12/09 04:37:14;;;;;;;2.80;0.80;;;18.00;59.90;;;;;;6175416;22;94834;-60
2021/12/09 04:39:41;;;;;;;2.25;0.70;;;18.00;59.80;;;;;;6176537;22;92814;-59
2021/12/09 04:42:07;;;;;;;2.50;0.63;;;18.00;59.80;;;;;;6174925;22;94302;-59
2021/12/09 04:44:33;;;;;;;1.83;0.77;;;18.00;59.80;;;;;;6174887;22;96072;-59
2021/12/09 04:47:01;;;;;;;1.17;0.50;;;18.00;59.80;;;;;;6176186;22;92784;-59
2021/12/09 04:49:29;;;;;;;2.00;0.60;;;18.00;59.80;;;;;;6176797;22;92939;-60
2021/12/09 04:51:57;;;;;;;1.48;0.55;;;18.00;59.80;;;;;;6176556;22;92665;-59
2021/12/09 04:54:23;;;;;;;2.90;0.50;;;18.00;59.80;;;;;;6175799;22;95312;-59
2021/12/09 04:56:49;;;;;;;1.85;0.60;;;18.00;59.80;;;;;;6176732;22;92752;-59
2021/12/09 04:59:15;;;;;;;1.85;0.70;;;17.90;59.70;;;;;;6176243;22;92347;-60
2021/12/09 05:01:46;;;;;;;3.00;1.02;;;18.00;59.80;;;;;;6174988;22;94671;-59
2021/12/09 05:04:12;;;;;;;1.10;0.60;;;17.90;59.70;;;;;;6174169;22;94944;-59
2021/12/09 05:06:38;;;;;;;3.55;0.60;;;17.90;59.70;;;;;;6174792;22;92722;-59
2021/12/09 05:09:09;;;;;;;1.38;0.45;;;17.90;59.70;;;;;;6176512;22;92718;-59
2021/12/09 05:14:05;;;;;;;1.08;0.65;;;17.90;59.70;;;;;;6176192;22;92819;-59
2021/12/09 05:16:32;;;;;;;1.73;0.73;;;17.90;59.70;;;;;;6175540;22;92185;-59
2021/12/09 05:18:58;;;;;;;1.10;0.50;;;17.90;59.70;;;;;;6175348;22;92114;-60
2021/12/09 05:21:29;;;;;;;1.48;0.45;;;17.90;59.70;;;;;;6176508;22;93005;-59
2021/12/09 05:23:55;;;;;;;1.38;0.55;;;17.90;59.70;;;;;;6174722;22;93170;-58
2021/12/09 05:26:26;;;;;;;0.80;0.60;;;17.90;59.70;;;;;;6174873;22;93478;-59
2021/12/09 05:28:55;;;;;;;2.25;0.60;;;17.90;59.60;;;;;;6175530;22;92759;-58
2021/12/09 05:34:07;;;;;;;0.73;0.43;;;17.80;59.60;;;;;;6175845;22;92428;-59
2021/12/09 05:36:33;;;;;;;2.22;0.65;;;17.80;59.50;;;;;;6175088;22;92076;-58
2021/12/09 05:38:59;;;;;;;0.95;0.50;;;17.80;59.50;;;;;;6175695;22;92985;-58
2021/12/09 05:41:24;;;;;;;2.25;0.70;;;17.80;59.50;;;;;;6175420;22;92845;-58
2021/12/09 05:43:50;;;;;;;2.50;0.60;;;17.80;59.50;;;;;;6176136;22;92954;-59
2021/12/09 05:46:17;;;;;;;1.30;0.70;;;17.80;59.50;;;;;;6175808;22;92794;-59
2021/12/09 05:48:42;;;;;;;2.00;0.50;;;17.80;59.50;;;;;;6176357;22;92751;-58
2021/12/09 05:51:08;;;;;;;1.33;0.55;;;17.80;59.50;;;;;;6173693;22;95287;-59
2021/12/09 05:53:34;;;;;;;1.40;0.63;;;17.70;59.50;;;;;;6174631;22;93692;-58
2021/12/09 05:55:59;;;;;;;3.72;0.80;;;17.80;59.50;;;;;;6175966;22;93115;-59
2021/12/09 05:58:26;;;;;;;1.27;0.50;;;17.80;60.00;;;;;;6175759;22;92897;-58
2021/12/09 06:00:53;;;;;;;3.40;0.75;;;17.80;59.50;;;;;;6175330;22;93067;-58
2021/12/09 06:03:20;;;;;;;3.25;0.60;;;17.70;59.50;;;;;;6175240;22;93453;-58
2021/12/09 06:05:47;;;;;;;1.05;0.47;;;17.70;59.50;;;;;;6177677;22;92770;-58
2021/12/09 06:08:13;;;;;;;1.73;0.60;;;17.70;59.50;;;;;;6178190;22;91888;-59
2021/12/09 06:10:38;;;;;;;1.10;0.60;;;17.70;59.50;;;;;;6178791;22;93218;-59
2021/12/09 06:13:05;;;;;;;2.90;0.70;;;17.70;59.50;;;;;;6179102;22;92965;-59
2021/12/09 06:15:31;;;;;;;3.60;0.80;;;17.70;59.50;;;;;;6176688;22;93251;-58
2021/12/09 06:17:57;;;;;;;1.77;0.52;;;17.70;59.50;;;;;;6178946;22;92171;-58
2021/12/09 06:20:25;;;;;;;0.73;0.50;;;17.70;59.50;;;;;;6177058;22;93161;-58
2021/12/09 06:22:50;;;;;;;4.03;0.73;;;17.70;59.50;;;;;;6177446;22;92771;-59
2021/12/09 06:25:18;;;;;;;2.40;0.88;;;17.70;59.50;;;;;;6179332;22;92440;-58
2021/12/09 06:27:48;;;;;;;2.13;0.65;;;17.60;59.40;;;;;;6178183;22;92231;-58
2021/12/09 06:30:16;;;;;;;1.48;0.50;;;17.60;59.40;;;;;;6179702;22;96071;-59
2021/12/09 06:32:42;;;;;;;0.95;0.50;;;17.60;59.40;;;;;;6177493;22;93760;-59
2021/12/09 06:35:09;;;;;;;2.03;0.68;;;17.60;59.60;;;;;;6178097;22;92312;-58
2021/12/09 06:37:40;;;;;;;2.70;0.50;;;17.70;59.70;;;;;;6177937;22;92453;-58
2021/12/09 06:40:08;;;;;;;2.13;0.90;;;17.70;59.70;;;;;;6178592;22;93621;-58
2021/12/09 06:42:34;;;;;;;1.63;0.55;;;17.70;59.60;;;;;;6177043;22;95167;-59
2021/12/09 06:45:00;;;;;;;3.17;0.80;;;17.80;59.50;;;;;;6179466;22;92604;-59
2021/12/09 06:47:25;;;;;;;1.70;0.55;;;17.90;59.40;;;;;;6178782;22;92822;-58
2021/12/09 06:49:51;;;;;;;2.80;0.60;;;18.00;59.30;;;;;;6178196;22;92578;-58
2021/12/09 06:52:18;;;;;;;2.17;0.57;;;18.10;59.10;;;;;;6177392;22;93891;-58
2021/12/09 06:54:44;;;;;;;1.10;0.40;;;18.20;58.90;;;;;;6179076;22;92858;-59
2021/12/09 06:57:09;;;;;;;2.35;0.70;;;18.30;58.70;;;;;;6179074;22;91361;-59
2021/12/09 06:59:35;;;;;;;3.33;0.55;;;18.40;58.50;;;;;;6177188;22;92393;-59
2021/12/09 07:02:01;;;;;;;1.38;0.88;;;18.50;58.40;;;;;;6176872;22;93920;-58
2021/12/09 07:04:27;;;;;;;1.42;0.60;;;18.60;58.20;;;;;;6177955;22;94376;-58
2021/12/09 07:06:52;;;;;;;2.72;0.70;;;18.60;58.00;;;;;;6178224;22;93202;-59
2021/12/09 07:09:18;;;;;;;2.08;0.50;;;18.70;57.90;;;;;;6178253;22;92657;-58
2021/12/09 07:11:49;;;;;;;2.22;0.60;;;18.80;57.80;;;;;;6177002;22;95877;-58
2021/12/09 07:14:16;;;;;;;3.60;0.73;;;18.90;57.80;;;;;;6177853;22;92300;-58
2021/12/09 07:16:41;;;;;;;6.00;1.00;;;18.90;57.50;;;;;;6175662;22;92679;-59
2021/12/09 07:19:07;;;;;;;2.65;0.65;;;19.00;57.00;;;;;;6176842;22;92597;-58
2021/12/09 07:21:32;;;;;;;5.68;1.00;;;19.10;56.60;;;;;;6177185;22;92264;-58
2021/12/09 07:23:58;;;;;;;4.72;1.10;;;19.10;55.90;;;;;;6176651;22;92350;-59
2021/12/09 07:26:24;;;;;;;563.15;80.53;;;19.10;55.40;;;;;;6177381;22;92868;-58
2021/12/09 07:28:50;;;;;;;113.70;16.83;;;19.10;54.90;;;;;;6174987;22;93978;-58
2021/12/09 07:31:16;;;;;;;74.50;9.55;;;19.20;54.30;;;;;;6175020;22;93670;-57
2021/12/09 07:33:42;;;;;;;41.80;6.55;;;19.20;53.80;;;;;;6176360;22;92138;-58
2021/12/09 07:36:08;;;;;;;37.95;5.55;;;19.20;53.30;;;;;;6174704;22;92755;-57
2021/12/09 07:38:33;;;;;;;24.17;4.18;;;19.20;52.90;;;;;;6175324;22;93204;-58
2021/12/09 07:41:00;;;;;;;27.80;4.65;;;19.20;52.60;;;;;;6174518;22;93967;-60
2021/12/09 07:43:25;;;;;;;28.83;5.03;;;19.10;52.30;;;;;;6175870;22;92368;-59
2021/12/09 07:45:51;;;;;;;23.10;4.32;;;19.20;52.40;;;;;;6176326;22;91400;-64
2021/12/09 07:48:17;;;;;;;23.13;3.25;;;19.20;52.30;;;;;;6175954;22;93296;-58
2021/12/09 07:50:43;;;;;;;31.25;3.78;;;19.20;52.10;;;;;;6175176;22;92654;-58
2021/12/09 07:53:08;;;;;;;21.13;3.83;;;19.20;52.00;;;;;;6175510;22;93675;-57
2021/12/09 07:55:34;;;;;;;18.20;3.40;;;19.10;52.00;;;;;;6176849;22;92689;-59
2021/12/09 07:58:00;;;;;;;15.30;3.17;;;19.10;52.10;;;;;;6175284;22;93424;-58
2021/12/09 08:00:30;;;;;;;15.05;3.10;;;19.10;52.20;;;;;;6176915;22;93348;-59
2021/12/09 08:02:56;;;;;;;17.58;3.45;;;19.10;52.40;;;;;;6177063;22;92856;-59
2021/12/09 08:05:24;;;;;;;21.42;4.40;;;19.00;52.60;;;;;;6176438;22;93621;-58
2021/12/09 08:07:50;;;;;;;25.55;5.70;;;19.00;53.00;;;;;;6176230;22;92515;-58
2021/12/09 08:10:18;;;;;;;22.00;4.05;;;19.00;53.40;;;;;;6175390;22;92773;-59
2021/12/09 08:12:44;;;;;;;17.17;3.80;;;19.10;53.70;;;;;;6175703;22;92478;-58
2021/12/09 08:15:11;;;;;;;18.00;4.18;;;19.10;53.90;;;;;;6175277;22;92831;-59
2021/12/09 08:20:09;;;;;;;11.40;3.65;;;19.30;54.00;;;;;;6173921;22;93212;-61
2021/12/09 08:22:35;;;;;;;17.88;3.80;;;19.40;53.90;;;;;;6173738;22;92182;-60
2021/12/09 08:25:03;;;;;;;17.10;4.50;;;19.40;53.90;;;;;;6175694;22;92462;-61
2021/12/09 08:27:29;;;;;;;13.73;3.53;;;19.50;53.80;;;;;;6173935;22;95703;-60
2021/12/09 08:29:55;;;;;;;15.43;3.47;;;19.50;53.70;;;;;;6156299;22;93690;-61
2021/12/09 08:32:21;;;;;;;12.43;3.42;;;19.60;53.60;;;;;;6176386;22;92305;-61
2021/12/09 08:34:47;;;;;;;12.20;3.28;;;19.60;53.50;;;;;;6175559;22;92255;-62
2021/12/09 08:37:13;;;;;;;13.90;4.03;;;19.60;53.40;;;;;;6174534;22;92520;-62
2021/12/09 08:39:39;;;;;;;16.50;3.75;;;19.60;53.30;;;;;;6174332;22;92416;-60
2021/12/09 08:42:05;;;;;;;10.82;3.15;;;19.60;53.60;;;;;;6173970;22;93644;-61
2021/12/09 08:44:30;;;;;;;13.98;2.85;;;19.60;52.90;;;;;;6176473;22;92422;-61
2021/12/09 08:46:56;;;;;;;9.82;2.60;;;19.60;52.80;;;;;;6175528;22;92700;-62
2021/12/09 08:49:22;;;;;;;13.77;2.92;;;19.60;52.60;;;;;;6174658;22;92845;-61
2021/12/09 08:51:48;;;;;;;11.23;2.40;;;19.60;52.50;;;;;;6174723;22;93015;-62
2021/12/09 08:54:15;;;;;;;15.48;3.92;;;19.50;52.40;;;;;;6175135;22;92394;-60
2021/12/09 08:56:42;;;;;;;9.40;2.47;;;19.60;52.40;;;;;;6171136;22;96146;-58
2021/12/09 08:59:08;;;;;;;12.15;2.53;;;19.50;52.30;;;;;;6175272;22;92715;-58
2021/12/09 09:01:34;;;;;;;11.15;2.38;;;19.50;53.10;;;;;;6175112;22;92694;-58
2021/12/09 09:04:01;;;;;;;7.57;2.60;;;19.60;53.10;;;;;;6175898;22;92621;-59
2021/12/09 09:06:31;;;;;;;9.18;2.72;;;19.60;53.90;;;;;;6172800;22;94082;-59
2021/12/09 09:08:58;;;;;;;11.05;2.67;;;19.70;54.40;;;;;;6173987;22;97767;-59
2021/12/09 09:11:24;;;;;;;8.07;2.28;;;19.70;54.30;;;;;;6173855;22;92436;-60
2021/12/09 09:13:50;;;;;;;9.95;2.20;;;19.80;55.30;;;;;;6175177;22;92604;-59
2021/12/09 09:16:17;;;;;;;8.10;1.70;;;19.90;55.00;;;;;;6172335;22;93193;-60
2021/12/09 09:18:43;;;;;;;9.90;2.22;;;19.90;54.70;;;;;;6173856;22;93923;-61
2021/12/09 09:21:09;;;;;;;7.53;1.70;;;19.90;54.50;;;;;;6175568;22;92314;-61
2021/12/09 09:23:35;;;;;;;6.32;1.67;;;20.00;54.60;;;;;;6173465;22;92277;-61
2021/12/09 09:26:03;;;;;;;5.93;1.90;;;20.00;54.60;;;;;;6174363;22;93223;-61
2021/12/09 09:28:28;;;;;;;6.10;1.88;;;20.10;54.60;;;;;;6173400;22;95256;-61
2021/12/09 09:30:57;;;;;;;6.55;1.83;;;20.20;54.70;;;;;;6173380;22;93759;-61
2021/12/09 09:33:27;;;;;;;6.68;2.10;;;20.30;54.60;;;;;;6173043;22;92617;-61
2021/12/09 09:35:54;;;;;;;6.15;1.70;;;20.30;54.70;;;;;;6125684;22;94442;-61
2021/12/09 09:38:22;;;;;;;5.43;1.90;;;20.40;54.90;;;;;;6157759;22;94379;-59
2021/12/09 09:41:02;;;;;;;7.45;1.83;;;20.40;55.40;;;;;;6109541;22;93829;-58
2021/12/09 09:46:15;;;;;;;5.13;1.55;;;20.50;55.40;;;;;;6172919;22;93418;-60
2021/12/09 09:48:43;;;;;;;7.15;1.42;;;20.50;55.50;;;;;;6173295;22;95200;-58
2021/12/09 09:51:10;;;;;;;6.63;1.60;;;20.50;55.60;;;;;;6172518;22;92423;-62
2021/12/09 09:53:38;;;;;;;6.53;1.90;;;20.50;55.40;;;;;;6171654;22;92288;-59
2021/12/09 09:56:13;;;;;;;7.00;2.08;;;20.50;55.10;;;;;;6172903;22;93806;-59
2021/12/09 09:58:40;;;;;;;2.80;1.10;;;20.50;55.00;;;;;;6172748;22;93785;-59
2021/12/09 10:01:06;;;;;;;5.13;1.60;;;20.50;55.10;;;;;;6172364;22;92560;-59
2021/12/09 10:03:34;;;;;;;5.80;1.58;;;20.50;55.20;;;;;;6173163;22;93337;-62
2021/12/09 10:06:02;;;;;;;6.20;1.73;;;20.50;55.40;;;;;;6171947;22;93280;-59
2021/12/09 10:08:31;;;;;;;6.43;1.60;;;20.50;55.70;;;;;;6172070;22;92753;-60
2021/12/09 10:10:57;;;;;;;4.57;1.13;;;20.50;56.00;;;;;;6171714;22;93228;-60
2021/12/09 10:13:35;;;;;;;3.03;1.45;;;20.40;55.90;;;;;;6172662;22;91996;-59
2021/12/09 10:16:05;;;;;;;5.20;1.50;;;20.50;56.30;;;;;;6172253;22;93614;-61
2021/12/09 10:18:43;;;;;;;7.38;1.23;;;20.50;56.70;;;;;;6172929;22;92633;-59
2021/12/09 10:21:12;;;;;;;8.02;1.38;;;20.50;56.50;;;;;;6172824;22;93433;-59
2021/12/09 10:23:42;;;;;;;4.55;1.40;;;20.40;56.70;;;;;;6172047;22;93290;-61
2021/12/09 10:26:16;;;;;;;5.82;1.58;;;20.40;56.90;;;;;;6174372;22;93407;-61
2021/12/09 10:28:50;;;;;;;2.90;0.93;;;20.40;57.00;;;;;;6174026;22;95709;-61
2021/12/09 10:31:45;;;;;;;4.38;1.20;;;20.40;57.00;;;;;;6175384;22;92707;-62
2021/12/09 10:34:36;;;;;;;4.53;1.35;;;20.30;57.10;;;;;;6168924;22;93180;-61
2021/12/09 10:37:20;;;;;;;5.97;1.40;;;20.30;57.20;;;;;;6173427;22;92737;-60
2021/12/09 10:39:51;;;;;;;5.40;1.50;;;20.20;57.70;;;;;;6171280;22;92831;-59
2021/12/09 10:42:19;;;;;;;3.17;1.30;;;20.20;56.40;;;;;;6173819;22;92704;-59
2021/12/09 10:44:48;;;;;;;3.80;1.20;;;20.20;54.20;;;;;;6173081;22;92844;-59
2021/12/09 10:50:29;;;;;;;1.90;0.90;;;20.10;52.30;;;;;;6174938;22;94820;-59
2021/12/09 10:53:47;;;;;;;3.50;1.00;;;20.00;52.00;;;;;;6176840;22;92619;-59
2021/12/09 10:56:10;;;;;;;3.25;1.00;;;20.00;51.70;;;;;;6175625;22;93093;-59
2021/12/09 10:58:40;;;;;;;;;;;20.00;51.40;;;;;;6175064;22;93728;-59
2021/12/09 11:01:13;;;;;;;2.38;1.10;;;19.90;51.50;;;;;;6176940;22;96216;-59
2021/12/09 11:03:49;;;;;;;4.22;0.90;;;19.90;51.70;;;;;;6177159;22;92235;-59
2021/12/09 11:06:20;;;;;;;2.58;1.02;;;19.90;51.00;;;;;;6177043;22;92323;-59
2021/12/09 11:08:47;;;;;;;3.63;0.90;;;19.80;50.90;;;;;;6175714;22;93770;-59
2021/12/09 11:11:16;;;;;;;2.47;0.82;;;19.80;50.80;;;;;;6175023;22;94252;-59
2021/12/09 11:13:47;;;;;;;3.08;0.80;;;19.70;50.70;;;;;;6176491;22;93826;-59
2021/12/09 11:16:22;;;;;;;4.80;1.00;;;19.70;50.60;;;;;;6176014;22;93640;-59
2021/12/09 11:18:50;;;;;;;3.72;1.08;;;19.70;50.60;;;;;;6176811;22;93304;-58
2021/12/09 11:21:28;;;;;;;1.63;0.80;;;19.70;50.40;;;;;;6175470;22;93132;-60
2021/12/09 11:24:04;;;;;;;1.85;1.00;;;19.70;50.40;;;;;;6174643;22;93078;-59
2021/12/09 11:26:57;;;;;;;3.95;1.00;;;19.70;50.40;;;;;;6174967;22;92630;-59
2021/12/09 11:29:29;;;;;;;3.83;1.08;;;19.70;50.30;;;;;;6174759;22;93592;-59
2021/12/09 11:34:51;;;;;;;6.13;1.17;;;19.70;50.20;;;;;;6176243;22;92265;-59
2021/12/09 11:39:56;;;;;;;4.70;1.23;;;19.80;50.40;;;;;;6174650;22;94046;-58
2021/12/09 11:42:31;;;;;;;5.80;1.40;;;19.80;50.90;;;;;;6175143;22;95153;-58
2021/12/09 11:44:57;;;;;;;6.28;1.40;;;19.80;50.40;;;;;;6175627;22;92317;-66
2021/12/09 11:47:22;;;;;;;4.13;1.20;;;19.80;50.40;;;;;;6175937;22;92982;-64
2021/12/09 11:49:51;;;;;;;5.72;1.65;;;19.80;50.10;;;;;;6176625;22;92896;-62
2021/12/09 11:52:18;;;;;;;6.13;1.73;;;19.90;49.90;;;;;;6175061;22;96016;-63
2021/12/09 11:54:51;;;;;;;5.35;1.83;;;19.90;49.80;;;;;;6176803;22;92495;-63
2021/12/09 11:57:40;;;;;;;9.13;1.87;;;20.00;49.80;;;;;;6176941;22;91974;-63
2021/12/09 12:12:18;;;;;;;13.30;2.42;;;20.20;49.90;;;;;;6174890;22;93019;-62
2021/12/09 12:14:48;;;;;;;8.63;2.25;;;20.20;50.00;;;;;;6152465;22;93208;-58
2021/12/09 12:17:33;;;;;;;9.70;1.85;;;20.20;50.10;;;;;;6176493;22;92726;-62
2021/12/09 12:20:15;;;;;;;9.38;2.40;;;20.30;50.20;;;;;;6174704;22;92797;-61
2021/12/09 12:28:36;;;;;;;9.60;1.92;;;20.30;50.30;;;;;;6175137;22;93023;-58
2021/12/09 12:34:05;;;;;;;6.38;1.77;;;20.30;50.50;;;;;;6175512;22;94006;-62
2021/12/09 12:39:58;;;;;;;6.63;2.00;;;20.40;50.60;;;;;;6175736;22;93032;-62
2021/12/09 12:42:41;;;;;;;15.25;2.33;;;20.40;50.70;;;;;;6175065;22;92628;-60
2021/12/09 12:50:33;;;;;;;9.90;2.47;;;20.50;51.00;;;;;;6176118;22;92487;-60
2021/12/09 12:53:39;;;;;;;10.45;1.92;;;20.50;51.00;;;;;;6176273;22;91746;-61
2021/12/09 12:56:23;;;;;;;7.53;2.00;;;20.50;51.10;;;;;;6175342;22;93098;-60
2021/12/09 13:01:33;;;;;;;;;;;20.40;51.20;;;;;;6175561;22;93413;-61
2021/12/09 13:04:11;;;;;;;7.22;2.20;;;20.40;51.30;;;;;;6176373;22;92551;-62
2021/12/09 13:06:52;;;;;;;7.55;2.20;;;20.40;51.40;;;;;;6175033;22;93258;-62
2021/12/09 13:09:38;;;;;;;9.32;2.05;;;20.40;51.40;;;;;;6175060;22;92793;-62
2021/12/09 13:12:11;;;;;;;8.48;2.10;;;20.40;51.50;;;;;;6176120;22;93043;-62
2021/12/09 13:15:09;;;;;;;7.50;1.95;;;20.30;51.50;;;;;;6174956;22;92516;-58
2021/12/09 13:17:46;;;;;;;7.68;2.08;;;20.30;51.60;;;;;;6174795;22;93229;-62
2021/12/09 13:20:32;;;;;;;7.63;2.38;;;20.30;51.60;;;;;;6176196;22;92790;-62
2021/12/09 13:23:26;;;;;;;9.43;2.15;;;20.30;51.70;;;;;;6176051;22;92977;-62
2021/12/09 13:26:20;;;;;;;8.85;2.08;;;20.30;51.90;;;;;;6175833;22;92786;-62
2021/12/09 13:29:19;;;;;;;6.47;1.67;;;20.30;52.00;;;;;;6175450;22;93269;-62
2021/12/09 13:34:37;;;;;;;5.50;1.83;;;20.20;52.20;;;;;;6175119;22;92856;-62
2021/12/09 13:38:12;;;;;;;8.23;2.22;;;20.20;52.20;;;;;;6175858;22;92274;-63
2021/12/09 13:48:19;;;;;;;8.88;2.55;;;20.10;52.50;;;;;;6175329;22;91976;-62
2021/12/09 13:50:53;;;;;;;6.88;2.08;;;20.10;52.50;;;;;;6175793;22;93076;-60
2021/12/09 13:56:07;;;;;;;6.50;2.13;;;20.00;52.80;;;;;;6173944;22;93929;-63
2021/12/09 13:58:33;;;;;;;6.63;1.88;;;20.10;52.90;;;;;;6174483;22;92524;-63